Terminal Aerodrome Forecast
Issued by NWS Shreveport, LA

Home | Current Version | Previous Version | Text Only | Print | Product List | Glossary On
Versions: 1 2 3 4 5 6 7 8 9 10 11 12 13 14 15 16 17 18 19 20 21 22 23 24 25 26 27 28 29 30 31 32 33
940
FTUS44 KSHV 232348
TAFSHV
TAF
KSHV 232348Z 2400/2424 20008KT P6SM FEW040 BKN160 BKN270
     FM240500 17004KT 6SM BR VCTS BKN040CB
      TEMPO 2405/2408 VRB15G25KT 2SM TSRA BR OVC025CB
     FM240800 21004KT 5SM BR BKN020
      TEMPO 2412/2415 VRB04KT 3SM BR BKN020
     FM241500 01007KT P6SM BKN020
     FM241800 04010KT P6SM OVC050=

USA.gov is the U.S. government's official web portal to all federal, state and local government web resources and services.